sensor_id;sensor_type;location;lat;lon;timestamp;temperature;humidity
3504;DHT22;1766;53.490;10.174;2022-08-03T00:01:04;28.30;42.50
3504;DHT22;1766;53.490;10.174;2022-08-03T00:03:06;28.20;42.50
3504;DHT22;1766;53.490;10.174;2022-08-03T00:05:11;28.20;42.50
3504;DHT22;1766;53.490;10.174;2022-08-03T00:07:14;28.10;42.50
3504;DHT22;1766;53.490;10.174;2022-08-03T00:09:16;28.10;42.60
3504;DHT22;1766;53.490;10.174;2022-08-03T00:11:18;28.10;42.60
3504;DHT22;1766;53.490;10.174;2022-08-03T00:13:20;28.10;42.60
3504;DHT22;1766;53.490;10.174;2022-08-03T00:15:22;28.10;42.60
3504;DHT22;1766;53.490;10.174;2022-08-03T00:17:24;28.00;42.50
3504;DHT22;1766;53.490;10.174;2022-08-03T00:19:26;28.00;42.70
3504;DHT22;1766;53.490;10.174;2022-08-03T00:21:28;28.00;42.80
3504;DHT22;1766;53.490;10.174;2022-08-03T00:23:31;27.90;42.80
3504;DHT22;1766;53.490;10.174;2022-08-03T00:25:34;27.90;42.90
3504;DHT22;1766;53.490;10.174;2022-08-03T00:27:36;27.90;43.00
3504;DHT22;1766;53.490;10.174;2022-08-03T00:29:38;27.90;43.00
3504;DHT22;1766;53.490;10.174;2022-08-03T00:31:40;27.80;42.90
3504;DHT22;1766;53.490;10.174;2022-08-03T00:33:42;27.80;43.00
3504;DHT22;1766;53.490;10.174;2022-08-03T00:35:44;27.80;43.10
3504;DHT22;1766;53.490;10.174;2022-08-03T00:37:46;27.70;43.10
3504;DHT22;1766;53.490;10.174;2022-08-03T00:39:49;27.70;43.10
3504;DHT22;1766;53.490;10.174;2022-08-03T00:41:52;27.70;43.30
3504;DHT22;1766;53.490;10.174;2022-08-03T00:43:53;27.60;43.20
3504;DHT22;1766;53.490;10.174;2022-08-03T00:45:55;27.70;43.40
3504;DHT22;1766;53.490;10.174;2022-08-03T00:47:59;27.60;43.40
3504;DHT22;1766;53.490;10.174;2022-08-03T00:50:02;27.60;43.60
3504;DHT22;1766;53.490;10.174;2022-08-03T00:52:05;27.60;43.60
3504;DHT22;1766;53.490;10.174;2022-08-03T00:54:07;27.50;43.60
3504;DHT22;1766;53.490;10.174;2022-08-03T00:56:12;27.50;43.50
3504;DHT22;1766;53.490;10.174;2022-08-03T00:58:14;27.50;43.80
3504;DHT22;1766;53.490;10.174;2022-08-03T01:00:18;27.40;43.70
3504;DHT22;1766;53.490;10.174;2022-08-03T01:02:21;27.40;43.90
3504;DHT22;1766;53.490;10.174;2022-08-03T01:04:23;27.40;43.90
3504;DHT22;1766;53.490;10.174;2022-08-03T01:06:32;27.30;44.00
3504;DHT22;1766;53.490;10.174;2022-08-03T01:08:45;27.20;44.10
3504;DHT22;1766;53.490;10.174;2022-08-03T01:10:53;27.20;44.10
3504;DHT22;1766;53.490;10.174;2022-08-03T01:13:03;27.10;44.20
3504;DHT22;1766;53.490;10.174;2022-08-03T01:15:16;27.10;44.20
3504;DHT22;1766;53.490;10.174;2022-08-03T01:17:27;27.10;44.40
3504;DHT22;1766;53.490;10.174;2022-08-03T01:19:42;27.00;44.30
3504;DHT22;1766;53.490;10.174;2022-08-03T01:21:58;27.00;44.40
3504;DHT22;1766;53.490;10.174;2022-08-03T01:24:21;27.00;44.50
3504;DHT22;1766;53.490;10.174;2022-08-03T01:26:41;26.90;44.40
3504;DHT22;1766;53.490;10.174;2022-08-03T01:31:45;26.80;44.60
3504;DHT22;1766;53.490;10.174;2022-08-03T01:33:56;26.80;44.50
3504;DHT22;1766;53.490;10.174;2022-08-03T01:36:03;26.80;44.70
3504;DHT22;1766;53.490;10.174;2022-08-03T01:38:10;26.80;44.80
3504;DHT22;1766;53.490;10.174;2022-08-03T01:40:13;26.70;44.80
3504;DHT22;1766;53.490;10.174;2022-08-03T01:42:17;26.70;45.00
3504;DHT22;1766;53.490;10.174;2022-08-03T01:44:21;26.60;45.00
3504;DHT22;1766;53.490;10.174;2022-08-03T01:46:25;26.60;45.10
3504;DHT22;1766;53.490;10.174;2022-08-03T01:48:29;26.60;45.20
3504;DHT22;1766;53.490;10.174;2022-08-03T01:50:33;26.50;45.30
3504;DHT22;1766;53.490;10.174;2022-08-03T01:52:37;26.50;45.30
3504;DHT22;1766;53.490;10.174;2022-08-03T01:54:43;26.50;45.40
3504;DHT22;1766;53.490;10.174;2022-08-03T01:56:48;26.50;45.50
3504;DHT22;1766;53.490;10.174;2022-08-03T01:58:52;26.50;45.40
3504;DHT22;1766;53.490;10.174;2022-08-03T02:00:55;26.40;45.40
3504;DHT22;1766;53.490;10.174;2022-08-03T02:03:01;26.40;45.50
3504;DHT22;1766;53.490;10.174;2022-08-03T02:05:08;26.50;45.70
3504;DHT22;1766;53.490;10.174;2022-08-03T02:07:12;26.40;45.60
3504;DHT22;1766;53.490;10.174;2022-08-03T02:09:15;26.40;45.60
3504;DHT22;1766;53.490;10.174;2022-08-03T02:11:19;26.40;45.70
3504;DHT22;1766;53.490;10.174;2022-08-03T02:13:21;26.30;45.60
3504;DHT22;1766;53.490;10.174;2022-08-03T02:15:24;26.30;45.70
3504;DHT22;1766;53.490;10.174;2022-08-03T02:17:27;26.30;45.80
3504;DHT22;1766;53.490;10.174;2022-08-03T02:19:29;26.20;45.80
3504;DHT22;1766;53.490;10.174;2022-08-03T02:21:35;26.20;45.90
3504;DHT22;1766;53.490;10.174;2022-08-03T02:23:38;26.10;45.90
3504;DHT22;1766;53.490;10.174;2022-08-03T02:25:45;26.20;46.00
3504;DHT22;1766;53.490;10.174;2022-08-03T02:27:50;26.20;46.10
3504;DHT22;1766;53.490;10.174;2022-08-03T02:29:59;26.20;46.20
3504;DHT22;1766;53.490;10.174;2022-08-03T02:32:04;26.10;46.10
3504;DHT22;1766;53.490;10.174;2022-08-03T02:34:12;26.10;46.10
3504;DHT22;1766;53.490;10.174;2022-08-03T02:36:19;26.00;46.20
3504;DHT22;1766;53.490;10.174;2022-08-03T02:38:29;25.90;46.20
3504;DHT22;1766;53.490;10.174;2022-08-03T02:40:33;26.00;46.30
3504;DHT22;1766;53.490;10.174;2022-08-03T02:42:37;26.00;46.30
3504;DHT22;1766;53.490;10.174;2022-08-03T02:44:41;26.00;46.30
3504;DHT22;1766;53.490;10.174;2022-08-03T02:46:47;25.90;46.40
3504;DHT22;1766;53.490;10.174;2022-08-03T02:48:51;26.00;46.50
3504;DHT22;1766;53.490;10.174;2022-08-03T02:50:56;25.80;46.50
3504;DHT22;1766;53.490;10.174;2022-08-03T02:53:00;25.90;46.70
3504;DHT22;1766;53.490;10.174;2022-08-03T02:55:06;25.80;46.70
3504;DHT22;1766;53.490;10.174;2022-08-03T02:57:10;25.80;46.70
3504;DHT22;1766;53.490;10.174;2022-08-03T02:59:14;25.70;46.70
3504;DHT22;1766;53.490;10.174;2022-08-03T03:01:18;25.80;46.80
3504;DHT22;1766;53.490;10.174;2022-08-03T03:03:21;25.80;46.90
3504;DHT22;1766;53.490;10.174;2022-08-03T03:05:35;25.80;46.90
3504;DHT22;1766;53.490;10.174;2022-08-03T03:07:38;25.70;46.90
3504;DHT22;1766;53.490;10.174;2022-08-03T03:09:41;25.70;46.90
3504;DHT22;1766;53.490;10.174;2022-08-03T03:11:45;25.70;47.10
3504;DHT22;1766;53.490;10.174;2022-08-03T03:13:48;25.60;47.00
3504;DHT22;1766;53.490;10.174;2022-08-03T03:15:52;25.60;47.10
3504;DHT22;1766;53.490;10.174;2022-08-03T03:17:55;25.60;47.30
3504;DHT22;1766;53.490;10.174;2022-08-03T03:19:58;25.60;47.20
3504;DHT22;1766;53.490;10.174;2022-08-03T03:22:01;25.60;47.30
3504;DHT22;1766;53.490;10.174;2022-08-03T03:24:05;25.50;47.30
3504;DHT22;1766;53.490;10.174;2022-08-03T03:26:08;25.50;47.30
3504;DHT22;1766;53.490;10.174;2022-08-03T03:28:11;25.50;47.40
3504;DHT22;1766;53.490;10.174;2022-08-03T03:30:13;25.50;47.40
3504;DHT22;1766;53.490;10.174;2022-08-03T03:32:15;25.50;47.50
3504;DHT22;1766;53.490;10.174;2022-08-03T03:34:17;25.50;47.50
3504;DHT22;1766;53.490;10.174;2022-08-03T03:36:19;25.50;47.60
3504;DHT22;1766;53.490;10.174;2022-08-03T03:38:21;25.50;47.40
3504;DHT22;1766;53.490;10.174;2022-08-03T03:40:23;25.50;47.40
3504;DHT22;1766;53.490;10.174;2022-08-03T03:42:25;25.60;47.50
3504;DHT22;1766;53.490;10.174;2022-08-03T03:44:29;25.60;47.50
3504;DHT22;1766;53.490;10.174;2022-08-03T03:46:31;25.50;47.50
3504;DHT22;1766;53.490;10.174;2022-08-03T03:48:34;25.50;47.50
3504;DHT22;1766;53.490;10.174;2022-08-03T03:50:36;25.50;47.50
3504;DHT22;1766;53.490;10.174;2022-08-03T03:52:40;25.40;47.70
3504;DHT22;1766;53.490;10.174;2022-08-03T03:54:43;25.50;47.60
3504;DHT22;1766;53.490;10.174;2022-08-03T03:56:45;25.50;47.80
3504;DHT22;1766;53.490;10.174;2022-08-03T03:58:47;25.50;47.60
3504;DHT22;1766;53.490;10.174;2022-08-03T04:00:51;25.50;47.60
3504;DHT22;1766;53.490;10.174;2022-08-03T04:02:53;25.50;47.50
3504;DHT22;1766;53.490;10.174;2022-08-03T04:04:55;25.60;47.50
3504;DHT22;1766;53.490;10.174;2022-08-03T04:07:11;25.60;47.50
3504;DHT22;1766;53.490;10.174;2022-08-03T04:09:26;25.60;47.50
3504;DHT22;1766;53.490;10.174;2022-08-03T04:11:46;25.70;47.50
3504;DHT22;1766;53.490;10.174;2022-08-03T04:13:52;25.70;47.40
3504;DHT22;1766;53.490;10.174;2022-08-03T04:15:58;25.70;47.60
3504;DHT22;1766;53.490;10.174;2022-08-03T04:18:00;25.70;47.50
3504;DHT22;1766;53.490;10.174;2022-08-03T04:20:04;25.70;47.50
3504;DHT22;1766;53.490;10.174;2022-08-03T04:22:10;25.70;47.50
3504;DHT22;1766;53.490;10.174;2022-08-03T04:24:14;25.70;47.50
3504;DHT22;1766;53.490;10.174;2022-08-03T04:26:20;25.70;47.50
3504;DHT22;1766;53.490;10.174;2022-08-03T04:28:23;25.70;47.60
3504;DHT22;1766;53.490;10.174;2022-08-03T04:30:26;25.70;47.60
3504;DHT22;1766;53.490;10.174;2022-08-03T04:32:31;25.70;47.60
3504;DHT22;1766;53.490;10.174;2022-08-03T04:34:33;25.80;47.60
3504;DHT22;1766;53.490;10.174;2022-08-03T04:36:38;25.80;47.60
3504;DHT22;1766;53.490;10.174;2022-08-03T04:38:54;25.80;47.60
3504;DHT22;1766;53.490;10.174;2022-08-03T04:40:59;25.80;47.60
3504;DHT22;1766;53.490;10.174;2022-08-03T04:43:02;25.90;47.50
3504;DHT22;1766;53.490;10.174;2022-08-03T04:45:07;25.80;47.50
3504;DHT22;1766;53.490;10.174;2022-08-03T04:47:12;25.80;47.40
3504;DHT22;1766;53.490;10.174;2022-08-03T04:49:16;25.90;47.40
3504;DHT22;1766;53.490;10.174;2022-08-03T04:51:18;25.90;47.50
3504;DHT22;1766;53.490;10.174;2022-08-03T04:53:20;25.90;47.40
3504;DHT22;1766;53.490;10.174;2022-08-03T04:55:26;25.90;47.50
3504;DHT22;1766;53.490;10.174;2022-08-03T04:57:28;25.90;47.50
3504;DHT22;1766;53.490;10.174;2022-08-03T04:59:30;25.90;47.40
3504;DHT22;1766;53.490;10.174;2022-08-03T05:01:31;25.90;47.30
3504;DHT22;1766;53.490;10.174;2022-08-03T05:03:33;25.90;47.30
3504;DHT22;1766;53.490;10.174;2022-08-03T05:05:36;25.90;47.40
3504;DHT22;1766;53.490;10.174;2022-08-03T05:07:38;25.90;47.50
3504;DHT22;1766;53.490;10.174;2022-08-03T05:09:40;25.90;47.50
3504;DHT22;1766;53.490;10.174;2022-08-03T05:11:42;25.90;47.60
3504;DHT22;1766;53.490;10.174;2022-08-03T05:13:44;25.90;47.50
3504;DHT22;1766;53.490;10.174;2022-08-03T05:15:46;25.90;47.60
3504;DHT22;1766;53.490;10.174;2022-08-03T05:17:48;26.00;48.20
3504;DHT22;1766;53.490;10.174;2022-08-03T05:19:50;26.00;47.50
3504;DHT22;1766;53.490;10.174;2022-08-03T05:21:53;26.00;47.50
3504;DHT22;1766;53.490;10.174;2022-08-03T05:23:55;26.00;47.40
3504;DHT22;1766;53.490;10.174;2022-08-03T05:25:57;26.10;47.50
3504;DHT22;1766;53.490;10.174;2022-08-03T05:27:59;26.10;47.60
3504;DHT22;1766;53.490;10.174;2022-08-03T05:30:01;26.20;47.50
3504;DHT22;1766;53.490;10.174;2022-08-03T05:32:03;26.10;47.40
3504;DHT22;1766;53.490;10.174;2022-08-03T05:34:06;26.30;47.40
3504;DHT22;1766;53.490;10.174;2022-08-03T05:36:08;26.30;47.30
3504;DHT22;1766;53.490;10.174;2022-08-03T05:38:11;26.40;47.20
3504;DHT22;1766;53.490;10.174;2022-08-03T05:40:13;26.40;47.10
3504;DHT22;1766;53.490;10.174;2022-08-03T05:42:15;26.50;47.00
3504;DHT22;1766;53.490;10.174;2022-08-03T05:44:17;26.60;46.90
3504;DHT22;1766;53.490;10.174;2022-08-03T05:46:19;26.60;46.80
3504;DHT22;1766;53.490;10.174;2022-08-03T05:48:21;26.70;46.80
3504;DHT22;1766;53.490;10.174;2022-08-03T05:50:23;26.80;46.60
3504;DHT22;1766;53.490;10.174;2022-08-03T05:52:25;26.80;46.50
3504;DHT22;1766;53.490;10.174;2022-08-03T05:54:28;26.80;46.20
3504;DHT22;1766;53.490;10.174;2022-08-03T05:56:30;26.90;46.30
3504;DHT22;1766;53.490;10.174;2022-08-03T05:58:32;26.90;46.20
3504;DHT22;1766;53.490;10.174;2022-08-03T06:00:34;27.00;46.70
3504;DHT22;1766;53.490;10.174;2022-08-03T06:02:36;27.10;46.10
3504;DHT22;1766;53.490;10.174;2022-08-03T06:04:38;27.10;46.00
3504;DHT22;1766;53.490;10.174;2022-08-03T06:06:41;27.10;45.80
3504;DHT22;1766;53.490;10.174;2022-08-03T06:08:44;27.20;46.00
3504;DHT22;1766;53.490;10.174;2022-08-03T06:10:49;27.30;45.90
3504;DHT22;1766;53.490;10.174;2022-08-03T06:12:51;27.30;45.60
3504;DHT22;1766;53.490;10.174;2022-08-03T06:14:53;27.30;45.50
3504;DHT22;1766;53.490;10.174;2022-08-03T06:16:55;27.40;45.50
3504;DHT22;1766;53.490;10.174;2022-08-03T06:18:56;27.50;45.50
3504;DHT22;1766;53.490;10.174;2022-08-03T06:20:58;27.50;45.40
3504;DHT22;1766;53.490;10.174;2022-08-03T06:23:00;27.60;45.50
3504;DHT22;1766;53.490;10.174;2022-08-03T06:25:02;27.50;45.30
3504;DHT22;1766;53.490;10.174;2022-08-03T06:27:08;27.70;45.30
3504;DHT22;1766;53.490;10.174;2022-08-03T06:29:11;27.80;45.20
3504;DHT22;1766;53.490;10.174;2022-08-03T06:31:13;27.80;45.10
3504;DHT22;1766;53.490;10.174;2022-08-03T06:33:15;27.90;45.10
3504;DHT22;1766;53.490;10.174;2022-08-03T06:35:17;27.90;45.00
3504;DHT22;1766;53.490;10.174;2022-08-03T06:37:19;28.00;45.00
3504;DHT22;1766;53.490;10.174;2022-08-03T06:39:21;28.10;44.90
3504;DHT22;1766;53.490;10.174;2022-08-03T06:41:23;28.10;44.90
3504;DHT22;1766;53.490;10.174;2022-08-03T06:43:27;28.20;44.90
3504;DHT22;1766;53.490;10.174;2022-08-03T06:45:28;28.30;44.80
3504;DHT22;1766;53.490;10.174;2022-08-03T06:47:30;28.30;44.80
3504;DHT22;1766;53.490;10.174;2022-08-03T06:49:32;28.40;44.70
3504;DHT22;1766;53.490;10.174;2022-08-03T06:51:34;28.40;44.60
3504;DHT22;1766;53.490;10.174;2022-08-03T06:53:36;28.50;44.50
3504;DHT22;1766;53.490;10.174;2022-08-03T06:55:38;28.60;44.50
3504;DHT22;1766;53.490;10.174;2022-08-03T06:57:41;28.70;44.40
3504;DHT22;1766;53.490;10.174;2022-08-03T06:59:44;28.70;44.30
3504;DHT22;1766;53.490;10.174;2022-08-03T07:01:46;28.80;44.30
3504;DHT22;1766;53.490;10.174;2022-08-03T07:03:47;28.90;44.20
3504;DHT22;1766;53.490;10.174;2022-08-03T07:05:49;28.90;43.90
3504;DHT22;1766;53.490;10.174;2022-08-03T07:07:54;29.00;43.80
3504;DHT22;1766;53.490;10.174;2022-08-03T07:09:57;29.00;43.50
3504;DHT22;1766;53.490;10.174;2022-08-03T07:11:59;29.10;43.40
3504;DHT22;1766;53.490;10.174;2022-08-03T07:14:01;29.20;43.30
3504;DHT22;1766;53.490;10.174;2022-08-03T07:16:05;29.30;43.20
3504;DHT22;1766;53.490;10.174;2022-08-03T07:18:06;29.30;43.10
3504;DHT22;1766;53.490;10.174;2022-08-03T07:20:09;29.40;42.90
3504;DHT22;1766;53.490;10.174;2022-08-03T07:22:11;29.50;42.90
3504;DHT22;1766;53.490;10.174;2022-08-03T07:24:13;29.50;42.70
3504;DHT22;1766;53.490;10.174;2022-08-03T07:26:15;29.60;42.70
3504;DHT22;1766;53.490;10.174;2022-08-03T07:28:17;29.70;42.50
3504;DHT22;1766;53.490;10.174;2022-08-03T07:30:19;29.80;42.70
3504;DHT22;1766;53.490;10.174;2022-08-03T07:32:23;29.90;42.40
3504;DHT22;1766;53.490;10.174;2022-08-03T07:34:25;29.90;42.50
3504;DHT22;1766;53.490;10.174;2022-08-03T07:36:27;30.00;42.30
3504;DHT22;1766;53.490;10.174;2022-08-03T07:38:29;30.10;42.20
3504;DHT22;1766;53.490;10.174;2022-08-03T07:40:31;30.20;42.00
3504;DHT22;1766;53.490;10.174;2022-08-03T07:42:33;30.30;42.00
3504;DHT22;1766;53.490;10.174;2022-08-03T07:44:35;30.40;41.90
3504;DHT22;1766;53.490;10.174;2022-08-03T07:46:37;30.50;41.50
3504;DHT22;1766;53.490;10.174;2022-08-03T07:48:40;30.50;41.30
3504;DHT22;1766;53.490;10.174;2022-08-03T07:50:42;30.60;41.10
3504;DHT22;1766;53.490;10.174;2022-08-03T07:52:44;30.70;40.70
3504;DHT22;1766;53.490;10.174;2022-08-03T07:54:48;30.80;40.50
3504;DHT22;1766;53.490;10.174;2022-08-03T07:56:50;31.00;40.50
3504;DHT22;1766;53.490;10.174;2022-08-03T07:58:53;31.00;40.30
3504;DHT22;1766;53.490;10.174;2022-08-03T08:00:55;31.10;40.40
3504;DHT22;1766;53.490;10.174;2022-08-03T08:02:57;31.20;40.10
3504;DHT22;1766;53.490;10.174;2022-08-03T08:05:00;31.40;39.80
3504;DHT22;1766;53.490;10.174;2022-08-03T08:07:02;31.50;39.60
3504;DHT22;1766;53.490;10.174;2022-08-03T08:09:04;31.60;39.30
3504;DHT22;1766;53.490;10.174;2022-08-03T08:11:06;31.70;38.70
3504;DHT22;1766;53.490;10.174;2022-08-03T08:13:08;31.80;38.50
3504;DHT22;1766;53.490;10.174;2022-08-03T08:15:10;31.90;38.00
3504;DHT22;1766;53.490;10.174;2022-08-03T08:17:13;32.00;37.60
3504;DHT22;1766;53.490;10.174;2022-08-03T08:19:14;32.00;37.30
3504;DHT22;1766;53.490;10.174;2022-08-03T08:21:18;32.10;37.00
3504;DHT22;1766;53.490;10.174;2022-08-03T08:23:19;32.10;36.60
3504;DHT22;1766;53.490;10.174;2022-08-03T08:25:23;32.20;36.50
3504;DHT22;1766;53.490;10.174;2022-08-03T08:27:25;32.30;36.40
3504;DHT22;1766;53.490;10.174;2022-08-03T08:29:27;32.30;36.10
3504;DHT22;1766;53.490;10.174;2022-08-03T08:31:29;32.40;35.90
3504;DHT22;1766;53.490;10.174;2022-08-03T08:33:31;32.40;35.90
3504;DHT22;1766;53.490;10.174;2022-08-03T08:35:34;32.50;35.80
3504;DHT22;1766;53.490;10.174;2022-08-03T08:37:38;32.50;35.70
3504;DHT22;1766;53.490;10.174;2022-08-03T08:39:40;32.60;35.70
3504;DHT22;1766;53.490;10.174;2022-08-03T08:41:42;32.70;35.50
3504;DHT22;1766;53.490;10.174;2022-08-03T08:43:44;32.70;35.30
3504;DHT22;1766;53.490;10.174;2022-08-03T08:45:48;32.80;35.10
3504;DHT22;1766;53.490;10.174;2022-08-03T08:47:51;32.80;35.00
3504;DHT22;1766;53.490;10.174;2022-08-03T08:49:57;32.80;34.90
3504;DHT22;1766;53.490;10.174;2022-08-03T08:52:00;32.80;34.70
3504;DHT22;1766;53.490;10.174;2022-08-03T08:54:06;32.90;34.70
3504;DHT22;1766;53.490;10.174;2022-08-03T08:56:13;32.90;34.70
3504;DHT22;1766;53.490;10.174;2022-08-03T08:58:16;33.00;34.70
3504;DHT22;1766;53.490;10.174;2022-08-03T09:00:20;33.10;34.70
3504;DHT22;1766;53.490;10.174;2022-08-03T09:02:21;33.10;34.60
3504;DHT22;1766;53.490;10.174;2022-08-03T09:04:24;33.20;34.70
3504;DHT22;1766;53.490;10.174;2022-08-03T09:06:26;33.20;34.60
3504;DHT22;1766;53.490;10.174;2022-08-03T09:08:28;33.30;34.60
3504;DHT22;1766;53.490;10.174;2022-08-03T09:10:32;33.40;34.80
3504;DHT22;1766;53.490;10.174;2022-08-03T09:12:37;33.40;34.50
3504;DHT22;1766;53.490;10.174;2022-08-03T09:14:40;33.40;34.40
3504;DHT22;1766;53.490;10.174;2022-08-03T09:16:54;33.50;34.20
3504;DHT22;1766;53.490;10.174;2022-08-03T09:19:10;33.50;34.40
3504;DHT22;1766;53.490;10.174;2022-08-03T09:21:15;33.60;34.30
3504;DHT22;1766;53.490;10.174;2022-08-03T09:23:20;33.70;34.30
3504;DHT22;1766;53.490;10.174;2022-08-03T09:25:30;33.80;34.10
3504;DHT22;1766;53.490;10.174;2022-08-03T09:27:41;33.80;34.00
3504;DHT22;1766;53.490;10.174;2022-08-03T09:29:46;33.90;34.10
3504;DHT22;1766;53.490;10.174;2022-08-03T09:31:59;34.00;34.30
3504;DHT22;1766;53.490;10.174;2022-08-03T09:34:03;34.00;34.20
3504;DHT22;1766;53.490;10.174;2022-08-03T09:36:06;34.10;34.10
3504;DHT22;1766;53.490;10.174;2022-08-03T09:38:11;34.00;33.90
3504;DHT22;1766;53.490;10.174;2022-08-03T09:40:34;34.10;34.10
3504;DHT22;1766;53.490;10.174;2022-08-03T09:42:36;34.00;34.00
3504;DHT22;1766;53.490;10.174;2022-08-03T09:44:56;34.10;33.90
3504;DHT22;1766;53.490;10.174;2022-08-03T09:46:58;34.20;33.80
3504;DHT22;1766;53.490;10.174;2022-08-03T09:49:15;34.20;33.70
3504;DHT22;1766;53.490;10.174;2022-08-03T09:51:23;34.10;33.70
3504;DHT22;1766;53.490;10.174;2022-08-03T09:53:25;34.20;33.60
3504;DHT22;1766;53.490;10.174;2022-08-03T09:55:27;34.20;33.60
3504;DHT22;1766;53.490;10.174;2022-08-03T09:57:30;34.30;33.60
3504;DHT22;1766;53.490;10.174;2022-08-03T09:59:33;34.30;33.50
3504;DHT22;1766;53.490;10.174;2022-08-03T10:01:36;34.30;33.50
3504;DHT22;1766;53.490;10.174;2022-08-03T10:03:40;34.40;33.40
3504;DHT22;1766;53.490;10.174;2022-08-03T10:05:42;34.40;33.30
3504;DHT22;1766;53.490;10.174;2022-08-03T10:07:46;34.40;33.10
3504;DHT22;1766;53.490;10.174;2022-08-03T10:09:53;34.40;33.10
3504;DHT22;1766;53.490;10.174;2022-08-03T10:11:56;34.40;33.10
3504;DHT22;1766;53.490;10.174;2022-08-03T10:14:03;34.50;33.10
3504;DHT22;1766;53.490;10.174;2022-08-03T10:16:05;34.40;33.10
3504;DHT22;1766;53.490;10.174;2022-08-03T10:18:07;34.50;33.20
3504;DHT22;1766;53.490;10.174;2022-08-03T10:20:09;34.60;33.10
3504;DHT22;1766;53.490;10.174;2022-08-03T10:22:14;34.70;33.10
3504;DHT22;1766;53.490;10.174;2022-08-03T10:24:23;34.70;32.90
3504;DHT22;1766;53.490;10.174;2022-08-03T10:26:26;34.70;33.00
3504;DHT22;1766;53.490;10.174;2022-08-03T10:28:34;34.70;33.00
3504;DHT22;1766;53.490;10.174;2022-08-03T10:30:40;34.80;33.00
3504;DHT22;1766;53.490;10.174;2022-08-03T10:32:51;34.90;33.00
3504;DHT22;1766;53.490;10.174;2022-08-03T10:35:02;34.90;32.90
3504;DHT22;1766;53.490;10.174;2022-08-03T10:37:09;35.00;32.80
3504;DHT22;1766;53.490;10.174;2022-08-03T10:39:13;35.10;32.80
3504;DHT22;1766;53.490;10.174;2022-08-03T10:41:20;35.10;32.70
3504;DHT22;1766;53.490;10.174;2022-08-03T10:43:27;35.10;32.70
3504;DHT22;1766;53.490;10.174;2022-08-03T10:45:35;35.20;32.50
3504;DHT22;1766;53.490;10.174;2022-08-03T10:47:42;35.10;32.30
3504;DHT22;1766;53.490;10.174;2022-08-03T10:49:47;35.20;32.30
3504;DHT22;1766;53.490;10.174;2022-08-03T10:51:49;35.10;32.20
3504;DHT22;1766;53.490;10.174;2022-08-03T10:53:51;35.20;32.20
3504;DHT22;1766;53.490;10.174;2022-08-03T10:55:53;35.20;32.10
3504;DHT22;1766;53.490;10.174;2022-08-03T10:58:09;35.30;32.20
3504;DHT22;1766;53.490;10.174;2022-08-03T11:00:11;35.30;31.80
3504;DHT22;1766;53.490;10.174;2022-08-03T11:02:16;35.30;31.70
3504;DHT22;1766;53.490;10.174;2022-08-03T11:04:19;35.40;31.50
3504;DHT22;1766;53.490;10.174;2022-08-03T11:06:22;35.40;31.40
3504;DHT22;1766;53.490;10.174;2022-08-03T11:08:27;35.40;31.20
3504;DHT22;1766;53.490;10.174;2022-08-03T11:10:31;35.30;31.30
3504;DHT22;1766;53.490;10.174;2022-08-03T11:12:33;35.30;31.50
3504;DHT22;1766;53.490;10.174;2022-08-03T11:14:45;35.40;31.30
3504;DHT22;1766;53.490;10.174;2022-08-03T11:16:49;35.30;31.70
3504;DHT22;1766;53.490;10.174;2022-08-03T11:18:58;35.50;31.30
3504;DHT22;1766;53.490;10.174;2022-08-03T11:21:02;35.50;31.40
3504;DHT22;1766;53.490;10.174;2022-08-03T11:23:04;35.60;31.40
3504;DHT22;1766;53.490;10.174;2022-08-03T11:25:06;35.70;31.40
3504;DHT22;1766;53.490;10.174;2022-08-03T11:27:16;35.80;31.30
3504;DHT22;1766;53.490;10.174;2022-08-03T11:29:26;35.80;31.20
3504;DHT22;1766;53.490;10.174;2022-08-03T11:31:44;35.90;31.20
3504;DHT22;1766;53.490;10.174;2022-08-03T11:34:03;35.90;31.10
3504;DHT22;1766;53.490;10.174;2022-08-03T11:36:05;36.00;31.20
3504;DHT22;1766;53.490;10.174;2022-08-03T11:38:09;36.20;30.90
3504;DHT22;1766;53.490;10.174;2022-08-03T11:40:32;36.30;30.80
3504;DHT22;1766;53.490;10.174;2022-08-03T11:42:40;36.30;30.70
3504;DHT22;1766;53.490;10.174;2022-08-03T11:44:44;36.40;30.50
3504;DHT22;1766;53.490;10.174;2022-08-03T11:46:46;36.50;30.50
3504;DHT22;1766;53.490;10.174;2022-08-03T11:48:49;36.60;30.60
3504;DHT22;1766;53.490;10.174;2022-08-03T11:50:53;36.70;30.50
3504;DHT22;1766;53.490;10.174;2022-08-03T11:52:54;36.80;30.00
3504;DHT22;1766;53.490;10.174;2022-08-03T11:54:56;36.90;30.00
3504;DHT22;1766;53.490;10.174;2022-08-03T11:56:58;37.00;30.10
3504;DHT22;1766;53.490;10.174;2022-08-03T11:59:00;37.00;30.30
3504;DHT22;1766;53.490;10.174;2022-08-03T12:01:03;37.20;30.40
3504;DHT22;1766;53.490;10.174;2022-08-03T12:03:07;37.40;30.10
3504;DHT22;1766;53.490;10.174;2022-08-03T12:05:12;37.50;29.90
3504;DHT22;1766;53.490;10.174;2022-08-03T12:07:16;37.70;29.70
3504;DHT22;1766;53.490;10.174;2022-08-03T12:09:18;37.90;29.60
3504;DHT22;1766;53.490;10.174;2022-08-03T12:11:19;38.40;29.30
3504;DHT22;1766;53.490;10.174;2022-08-03T12:13:22;39.10;28.20
3504;DHT22;1766;53.490;10.174;2022-08-03T12:15:26;39.50;27.70
3504;DHT22;1766;53.490;10.174;2022-08-03T12:17:32;39.90;27.50
3504;DHT22;1766;53.490;10.174;2022-08-03T12:19:41;40.60;26.80
3504;DHT22;1766;53.490;10.174;2022-08-03T12:21:45;41.30;26.40
3504;DHT22;1766;53.490;10.174;2022-08-03T12:23:50;42.10;26.10
3504;DHT22;1766;53.490;10.174;2022-08-03T12:26:01;43.10;25.40
3504;DHT22;1766;53.490;10.174;2022-08-03T12:28:07;43.80;24.50
3504;DHT22;1766;53.490;10.174;2022-08-03T12:30:11;44.20;24.00
3504;DHT22;1766;53.490;10.174;2022-08-03T12:32:14;43.80;23.10
3504;DHT22;1766;53.490;10.174;2022-08-03T12:34:16;44.60;23.20
3504;DHT22;1766;53.490;10.174;2022-08-03T12:36:19;44.60;22.90
3504;DHT22;1766;53.490;10.174;2022-08-03T12:38:21;44.50;22.90
3504;DHT22;1766;53.490;10.174;2022-08-03T12:40:25;44.70;22.90
3504;DHT22;1766;53.490;10.174;2022-08-03T12:42:29;44.90;22.90
3504;DHT22;1766;53.490;10.174;2022-08-03T12:44:32;45.00;22.80
3504;DHT22;1766;53.490;10.174;2022-08-03T12:46:36;45.10;22.80
3504;DHT22;1766;53.490;10.174;2022-08-03T12:48:56;45.10;22.50
3504;DHT22;1766;53.490;10.174;2022-08-03T12:51:08;45.00;22.40
3504;DHT22;1766;53.490;10.174;2022-08-03T12:53:10;45.10;22.30
3504;DHT22;1766;53.490;10.174;2022-08-03T12:55:18;45.20;22.30
3504;DHT22;1766;53.490;10.174;2022-08-03T12:57:22;45.30;22.20
3504;DHT22;1766;53.490;10.174;2022-08-03T12:59:25;45.50;22.10
3504;DHT22;1766;53.490;10.174;2022-08-03T13:01:35;45.40;21.90
3504;DHT22;1766;53.490;10.174;2022-08-03T13:03:39;45.30;22.00
3504;DHT22;1766;53.490;10.174;2022-08-03T13:05:42;45.40;22.20
3504;DHT22;1766;53.490;10.174;2022-08-03T13:07:45;45.40;22.10
3504;DHT22;1766;53.490;10.174;2022-08-03T13:09:48;45.60;22.30
3504;DHT22;1766;53.490;10.174;2022-08-03T13:12:08;45.90;22.30
3504;DHT22;1766;53.490;10.174;2022-08-03T13:14:12;46.40;22.20
3504;DHT22;1766;53.490;10.174;2022-08-03T13:16:13;46.70;21.60
3504;DHT22;1766;53.490;10.174;2022-08-03T13:18:15;46.70;21.50
3504;DHT22;1766;53.490;10.174;2022-08-03T13:20:17;46.70;21.40